sensor_id;sensor_type;location;lat;lon;timestamp;pressure;altitude;pressure_sealevel;temperature;humidity
20622;BME280;10470;42.670;23.354;2022-08-21T00:02:18;94254.16;;;19.44;100.00
20622;BME280;10470;42.670;23.354;2022-08-21T00:04:45;94255.22;;;19.60;100.00
20622;BME280;10470;42.670;23.354;2022-08-21T00:07:10;94260.81;;;19.79;100.00
20622;BME280;10470;42.670;23.354;2022-08-21T00:09:36;94249.38;;;19.69;100.00
20622;BME280;10470;42.670;23.354;2022-08-21T00:12:03;94239.00;;;19.51;100.00
20622;BME280;10470;42.670;23.354;2022-08-21T00:14:28;94254.75;;;19.56;100.00
20622;BME280;10470;42.670;23.354;2022-08-21T00:16:54;94249.19;;;19.61;100.00
20622;BME280;10470;42.670;23.354;2022-08-21T00:19:19;94242.53;;;19.51;100.00
20622;BME280;10470;42.670;23.354;2022-08-21T00:21:46;94245.66;;;19.61;100.00
20622;BME280;10470;42.670;23.354;2022-08-21T00:24:12;94242.56;;;19.70;100.00
20622;BME280;10470;42.670;23.354;2022-08-21T00:26:37;94252.81;;;19.75;100.00
20622;BME280;10470;42.670;23.354;2022-08-21T00:29:03;94237.19;;;19.53;100.00
20622;BME280;10470;42.670;23.354;2022-08-21T00:31:29;94246.44;;;19.61;100.00
20622;BME280;10470;42.670;23.354;2022-08-21T00:33:54;94237.44;;;19.55;100.00
20622;BME280;10470;42.670;23.354;2022-08-21T00:36:20;94237.66;;;19.57;100.00
20622;BME280;10470;42.670;23.354;2022-08-21T00:38:45;94228.34;;;19.60;100.00
20622;BME280;10470;42.670;23.354;2022-08-21T00:41:11;94231.91;;;19.55;100.00
20622;BME280;10470;42.670;23.354;2022-08-21T00:43:37;94251.25;;;19.55;100.00
20622;BME280;10470;42.670;23.354;2022-08-21T00:46:05;94251.31;;;19.50;100.00
20622;BME280;10470;42.670;23.354;2022-08-21T00:48:31;94251.72;;;19.59;100.00
20622;BME280;10470;42.670;23.354;2022-08-21T00:51:10;94251.69;;;19.16;100.00
20622;BME280;10470;42.670;23.354;2022-08-21T00:53:39;94250.88;;;19.46;100.00
20622;BME280;10470;42.670;23.354;2022-08-21T00:56:07;94254.09;;;19.25;100.00
20622;BME280;10470;42.670;23.354;2022-08-21T00:58:35;94246.47;;;19.56;100.00
20622;BME280;10470;42.670;23.354;2022-08-21T01:01:05;94240.56;;;19.71;100.00
20622;BME280;10470;42.670;23.354;2022-08-21T01:03:31;94240.59;;;19.65;100.00
20622;BME280;10470;42.670;23.354;2022-08-21T01:05:57;94242.81;;;19.72;100.00
20622;BME280;10470;42.670;23.354;2022-08-21T01:08:23;94233.63;;;19.83;100.00
20622;BME280;10470;42.670;23.354;2022-08-21T01:10:49;94232.72;;;19.75;100.00
20622;BME280;10470;42.670;23.354;2022-08-21T01:13:17;94229.97;;;19.50;100.00
20622;BME280;10470;42.670;23.354;2022-08-21T01:15:46;94227.72;;;19.49;100.00
20622;BME280;10470;42.670;23.354;2022-08-21T01:18:14;94228.25;;;19.66;100.00
20622;BME280;10470;42.670;23.354;2022-08-21T01:20:44;94225.28;;;19.64;100.00
20622;BME280;10470;42.670;23.354;2022-08-21T01:23:11;94219.72;;;19.70;100.00
20622;BME280;10470;42.670;23.354;2022-08-21T01:25:37;94215.97;;;19.67;100.00
20622;BME280;10470;42.670;23.354;2022-08-21T01:28:13;94215.09;;;19.78;100.00
20622;BME280;10470;42.670;23.354;2022-08-21T01:30:40;94205.94;;;19.64;100.00
20622;BME280;10470;42.670;23.354;2022-08-21T01:33:07;94218.03;;;19.61;100.00
20622;BME280;10470;42.670;23.354;2022-08-21T01:35:33;94207.25;;;19.38;100.00
20622;BME280;10470;42.670;23.354;2022-08-21T01:37:59;94212.56;;;19.55;100.00
20622;BME280;10470;42.670;23.354;2022-08-21T01:40:24;94216.94;;;19.70;100.00
20622;BME280;10470;42.670;23.354;2022-08-21T01:42:49;94212.69;;;19.69;100.00
20622;BME280;10470;42.670;23.354;2022-08-21T01:45:15;94217.13;;;19.77;100.00
20622;BME280;10470;42.670;23.354;2022-08-21T01:47:44;94223.22;;;19.89;100.00
20622;BME280;10470;42.670;23.354;2022-08-21T01:50:12;94219.34;;;19.79;100.00
20622;BME280;10470;42.670;23.354;2022-08-21T01:52:39;94212.41;;;19.91;100.00
20622;BME280;10470;42.670;23.354;2022-08-21T01:55:06;94214.94;;;19.89;100.00
20622;BME280;10470;42.670;23.354;2022-08-21T01:57:32;94222.88;;;19.98;100.00
20622;BME280;10470;42.670;23.354;2022-08-21T01:59:58;94220.09;;;19.79;100.00
20622;BME280;10470;42.670;23.354;2022-08-21T02:02:24;94215.41;;;19.74;100.00
20622;BME280;10470;42.670;23.354;2022-08-21T02:04:49;94221.06;;;20.01;100.00
20622;BME280;10470;42.670;23.354;2022-08-21T02:07:15;94217.63;;;19.95;100.00
20622;BME280;10470;42.670;23.354;2022-08-21T02:09:40;94228.16;;;20.15;100.00
20622;BME280;10470;42.670;23.354;2022-08-21T02:12:07;94233.34;;;20.05;100.00
20622;BME280;10470;42.670;23.354;2022-08-21T02:14:33;94239.97;;;19.97;100.00
20622;BME280;10470;42.670;23.354;2022-08-21T02:16:59;94241.25;;;19.96;100.00
20622;BME280;10470;42.670;23.354;2022-08-21T02:19:25;94239.63;;;20.06;100.00
20622;BME280;10470;42.670;23.354;2022-08-21T02:21:50;94237.22;;;20.16;100.00
20622;BME280;10470;42.670;23.354;2022-08-21T02:24:15;94238.31;;;20.26;100.00
20622;BME280;10470;42.670;23.354;2022-08-21T02:26:41;94239.03;;;20.13;100.00
20622;BME280;10470;42.670;23.354;2022-08-21T02:29:07;94237.75;;;19.95;100.00
20622;BME280;10470;42.670;23.354;2022-08-21T02:31:33;94242.59;;;20.08;100.00
20622;BME280;10470;42.670;23.354;2022-08-21T02:33:58;94257.25;;;20.03;100.00
20622;BME280;10470;42.670;23.354;2022-08-21T02:36:25;94253.81;;;19.97;100.00
20622;BME280;10470;42.670;23.354;2022-08-21T02:38:50;94255.97;;;20.04;100.00
20622;BME280;10470;42.670;23.354;2022-08-21T02:41:18;94246.56;;;19.94;100.00
20622;BME280;10470;42.670;23.354;2022-08-21T02:43:44;94240.81;;;20.11;100.00
20622;BME280;10470;42.670;23.354;2022-08-21T02:46:11;94246.41;;;20.05;100.00
20622;BME280;10470;42.670;23.354;2022-08-21T02:48:38;94251.06;;;20.16;100.00
20622;BME280;10470;42.670;23.354;2022-08-21T02:51:07;94234.22;;;19.95;100.00
20622;BME280;10470;42.670;23.354;2022-08-21T02:53:34;94250.97;;;20.02;100.00
20622;BME280;10470;42.670;23.354;2022-08-21T02:56:02;94250.94;;;19.83;100.00
20622;BME280;10470;42.670;23.354;2022-08-21T02:58:31;94254.19;;;20.06;100.00
20622;BME280;10470;42.670;23.354;2022-08-21T03:00:58;94258.75;;;20.04;100.00
20622;BME280;10470;42.670;23.354;2022-08-21T03:03:25;94251.09;;;20.10;100.00
20622;BME280;10470;42.670;23.354;2022-08-21T03:05:51;94253.81;;;20.16;100.00
20622;BME280;10470;42.670;23.354;2022-08-21T03:08:18;94260.09;;;20.16;100.00
20622;BME280;10470;42.670;23.354;2022-08-21T03:10:47;94262.31;;;20.18;100.00
20622;BME280;10470;42.670;23.354;2022-08-21T03:13:14;94245.81;;;19.93;100.00
20622;BME280;10470;42.670;23.354;2022-08-21T03:15:40;94254.53;;;19.78;100.00
20622;BME280;10470;42.670;23.354;2022-08-21T03:18:07;94250.69;;;20.06;100.00
20622;BME280;10470;42.670;23.354;2022-08-21T03:20:35;94245.22;;;20.00;100.00
20622;BME280;10470;42.670;23.354;2022-08-21T03:23:01;94244.03;;;19.96;100.00
20622;BME280;10470;42.670;23.354;2022-08-21T03:25:29;94265.41;;;19.95;100.00
20622;BME280;10470;42.670;23.354;2022-08-21T03:27:57;94257.09;;;19.95;100.00
20622;BME280;10470;42.670;23.354;2022-08-21T03:30:23;94252.41;;;19.65;100.00
20622;BME280;10470;42.670;23.354;2022-08-21T03:32:48;94245.75;;;19.99;100.00
20622;BME280;10470;42.670;23.354;2022-08-21T03:35:14;94240.88;;;20.05;100.00
20622;BME280;10470;42.670;23.354;2022-08-21T03:37:40;94248.88;;;20.08;100.00
20622;BME280;10470;42.670;23.354;2022-08-21T03:40:07;94255.00;;;20.01;100.00
20622;BME280;10470;42.670;23.354;2022-08-21T03:42:33;94241.63;;;20.05;100.00
20622;BME280;10470;42.670;23.354;2022-08-21T03:44:59;94243.56;;;20.11;100.00
20622;BME280;10470;42.670;23.354;2022-08-21T03:47:24;94255.66;;;19.89;100.00
20622;BME280;10470;42.670;23.354;2022-08-21T03:49:50;94257.47;;;19.86;100.00
20622;BME280;10470;42.670;23.354;2022-08-21T03:52:15;94260.13;;;19.73;100.00
20622;BME280;10470;42.670;23.354;2022-08-21T03:54:43;94256.88;;;19.74;100.00
20622;BME280;10470;42.670;23.354;2022-08-21T03:57:09;94260.22;;;19.67;100.00
20622;BME280;10470;42.670;23.354;2022-08-21T03:59:35;94268.25;;;19.65;100.00
20622;BME280;10470;42.670;23.354;2022-08-21T04:02:02;94268.06;;;19.57;100.00
20622;BME280;10470;42.670;23.354;2022-08-21T04:04:29;94270.44;;;19.72;100.00
20622;BME280;10470;42.670;23.354;2022-08-21T04:06:55;94269.69;;;19.47;100.00
20622;BME280;10470;42.670;23.354;2022-08-21T04:09:21;94269.34;;;19.56;100.00
20622;BME280;10470;42.670;23.354;2022-08-21T04:11:46;94273.50;;;19.69;100.00
20622;BME280;10470;42.670;23.354;2022-08-21T04:14:14;94276.06;;;19.61;100.00
20622;BME280;10470;42.670;23.354;2022-08-21T04:16:40;94269.72;;;19.66;100.00
20622;BME280;10470;42.670;23.354;2022-08-21T04:19:06;94258.06;;;19.30;100.00
20622;BME280;10470;42.670;23.354;2022-08-21T04:21:33;94257.53;;;19.56;100.00
20622;BME280;10470;42.670;23.354;2022-08-21T04:23:59;94252.41;;;19.65;100.00
20622;BME280;10470;42.670;23.354;2022-08-21T04:26:25;94266.63;;;19.75;100.00
20622;BME280;10470;42.670;23.354;2022-08-21T04:28:51;94265.44;;;19.71;100.00
20622;BME280;10470;42.670;23.354;2022-08-21T04:31:18;94264.19;;;19.66;100.00
20622;BME280;10470;42.670;23.354;2022-08-21T04:33:43;94268.00;;;19.63;100.00
20622;BME280;10470;42.670;23.354;2022-08-21T04:36:10;94270.22;;;19.70;100.00
20622;BME280;10470;42.670;23.354;2022-08-21T04:38:36;94267.50;;;19.64;100.00
20622;BME280;10470;42.670;23.354;2022-08-21T04:41:02;94255.13;;;19.71;100.00
20622;BME280;10470;42.670;23.354;2022-08-21T04:43:27;94253.41;;;19.43;100.00
20622;BME280;10470;42.670;23.354;2022-08-21T04:45:53;94276.53;;;19.65;100.00
20622;BME280;10470;42.670;23.354;2022-08-21T04:48:22;94261.41;;;19.72;100.00
20622;BME280;10470;42.670;23.354;2022-08-21T04:50:53;94274.44;;;19.77;100.00
20622;BME280;10470;42.670;23.354;2022-08-21T04:53:25;94268.66;;;19.50;100.00
20622;BME280;10470;42.670;23.354;2022-08-21T04:55:54;94277.53;;;19.68;100.00
20622;BME280;10470;42.670;23.354;2022-08-21T04:58:22;94270.78;;;19.63;100.00
20622;BME280;10470;42.670;23.354;2022-08-21T05:00:54;94264.84;;;19.78;100.00
20622;BME280;10470;42.670;23.354;2022-08-21T05:03:21;94270.88;;;19.76;100.00
20622;BME280;10470;42.670;23.354;2022-08-21T05:05:48;94262.22;;;19.67;100.00
20622;BME280;10470;42.670;23.354;2022-08-21T05:08:16;94269.88;;;19.79;100.00
20622;BME280;10470;42.670;23.354;2022-08-21T05:10:43;94265.31;;;19.82;100.00
20622;BME280;10470;42.670;23.354;2022-08-21T05:13:14;94274.66;;;20.17;100.00
20622;BME280;10470;42.670;23.354;2022-08-21T05:15:40;94289.69;;;20.02;100.00
20622;BME280;10470;42.670;23.354;2022-08-21T05:18:05;94277.66;;;20.38;100.00
20622;BME280;10470;42.670;23.354;2022-08-21T05:20:32;94274.56;;;20.41;100.00
20622;BME280;10470;42.670;23.354;2022-08-21T05:22:59;94280.22;;;20.55;100.00
20622;BME280;10470;42.670;23.354;2022-08-21T05:25:25;94282.69;;;20.58;100.00
20622;BME280;10470;42.670;23.354;2022-08-21T05:27:51;94276.97;;;20.50;100.00
20622;BME280;10470;42.670;23.354;2022-08-21T05:30:16;94291.94;;;20.61;100.00
20622;BME280;10470;42.670;23.354;2022-08-21T05:32:41;94296.75;;;20.60;100.00
20622;BME280;10470;42.670;23.354;2022-08-21T05:35:08;94276.69;;;20.35;100.00
20622;BME280;10470;42.670;23.354;2022-08-21T05:37:34;94288.25;;;20.34;100.00
20622;BME280;10470;42.670;23.354;2022-08-21T05:40:01;94289.53;;;20.70;100.00
20622;BME280;10470;42.670;23.354;2022-08-21T05:42:27;94287.75;;;21.19;100.00
20622;BME280;10470;42.670;23.354;2022-08-21T05:44:53;94289.38;;;21.27;100.00
20622;BME280;10470;42.670;23.354;2022-08-21T05:47:18;94280.16;;;21.38;100.00
20622;BME280;10470;42.670;23.354;2022-08-21T05:49:44;94288.25;;;21.49;100.00
20622;BME280;10470;42.670;23.354;2022-08-21T05:52:09;94284.88;;;21.37;100.00
20622;BME280;10470;42.670;23.354;2022-08-21T05:54:37;94291.25;;;21.19;100.00
20622;BME280;10470;42.670;23.354;2022-08-21T05:57:02;94293.19;;;21.24;100.00
20622;BME280;10470;42.670;23.354;2022-08-21T05:59:28;94286.66;;;21.08;100.00
20622;BME280;10470;42.670;23.354;2022-08-21T06:01:53;94294.88;;;21.46;100.00
20622;BME280;10470;42.670;23.354;2022-08-21T06:04:19;94295.94;;;21.56;100.00
20622;BME280;10470;42.670;23.354;2022-08-21T06:06:44;94300.50;;;21.41;100.00
20622;BME280;10470;42.670;23.354;2022-08-21T06:09:10;94299.31;;;21.04;100.00
20622;BME280;10470;42.670;23.354;2022-08-21T06:11:35;94292.34;;;20.84;100.00
20622;BME280;10470;42.670;23.354;2022-08-21T06:14:01;94291.72;;;21.23;100.00
20622;BME280;10470;42.670;23.354;2022-08-21T06:16:27;94301.84;;;21.34;100.00
20622;BME280;10470;42.670;23.354;2022-08-21T06:18:52;94292.91;;;21.28;100.00
20622;BME280;10470;42.670;23.354;2022-08-21T06:21:18;94294.19;;;21.40;100.00
20622;BME280;10470;42.670;23.354;2022-08-21T06:23:44;94300.63;;;21.88;100.00
20622;BME280;10470;42.670;23.354;2022-08-21T06:26:11;94292.53;;;21.90;100.00
20622;BME280;10470;42.670;23.354;2022-08-21T06:28:38;94294.75;;;21.78;100.00
20622;BME280;10470;42.670;23.354;2022-08-21T06:31:15;94297.63;;;21.99;100.00
20622;BME280;10470;42.670;23.354;2022-08-21T06:33:41;94302.41;;;22.25;100.00
20622;BME280;10470;42.670;23.354;2022-08-21T06:36:07;94306.47;;;22.24;100.00
20622;BME280;10470;42.670;23.354;2022-08-21T06:38:33;94308.44;;;21.90;100.00
20622;BME280;10470;42.670;23.354;2022-08-21T06:40:58;94313.00;;;21.87;100.00
20622;BME280;10470;42.670;23.354;2022-08-21T06:43:24;94308.41;;;21.50;100.00
20622;BME280;10470;42.670;23.354;2022-08-21T06:45:49;94303.63;;;21.90;100.00
20622;BME280;10470;42.670;23.354;2022-08-21T06:48:15;94313.53;;;21.72;100.00
20622;BME280;10470;42.670;23.354;2022-08-21T06:50:40;94313.66;;;21.80;100.00
20622;BME280;10470;42.670;23.354;2022-08-21T06:53:10;94313.22;;;21.89;100.00
20622;BME280;10470;42.670;23.354;2022-08-21T06:55:36;94315.16;;;21.22;100.00
20622;BME280;10470;42.670;23.354;2022-08-21T06:58:04;94312.47;;;21.62;100.00
20622;BME280;10470;42.670;23.354;2022-08-21T07:00:30;94328.47;;;21.69;100.00
20622;BME280;10470;42.670;23.354;2022-08-21T07:02:55;94322.09;;;21.61;100.00
20622;BME280;10470;42.670;23.354;2022-08-21T07:05:25;94332.94;;;21.99;100.00
20622;BME280;10470;42.670;23.354;2022-08-21T07:07:51;94321.44;;;21.95;100.00
20622;BME280;10470;42.670;23.354;2022-08-21T07:10:19;94327.94;;;22.11;100.00
20622;BME280;10470;42.670;23.354;2022-08-21T07:12:44;94317.25;;;22.01;100.00
20622;BME280;10470;42.670;23.354;2022-08-21T07:15:10;94325.91;;;22.24;100.00
20622;BME280;10470;42.670;23.354;2022-08-21T07:17:36;94333.19;;;21.88;100.00
20622;BME280;10470;42.670;23.354;2022-08-21T07:20:03;94322.28;;;21.76;100.00
20622;BME280;10470;42.670;23.354;2022-08-21T07:22:29;94329.84;;;21.89;100.00
20622;BME280;10470;42.670;23.354;2022-08-21T07:24:54;94315.06;;;20.95;100.00
20622;BME280;10470;42.670;23.354;2022-08-21T07:27:20;94321.59;;;20.98;100.00
20622;BME280;10470;42.670;23.354;2022-08-21T07:29:45;94312.69;;;21.19;100.00
20622;BME280;10470;42.670;23.354;2022-08-21T07:32:11;94308.34;;;21.36;100.00
20622;BME280;10470;42.670;23.354;2022-08-21T07:34:36;94307.25;;;21.58;100.00
20622;BME280;10470;42.670;23.354;2022-08-21T07:37:02;94297.53;;;21.78;100.00
20622;BME280;10470;42.670;23.354;2022-08-21T07:39:27;94308.84;;;21.80;100.00
20622;BME280;10470;42.670;23.354;2022-08-21T07:41:53;94305.00;;;21.57;100.00
20622;BME280;10470;42.670;23.354;2022-08-21T07:44:18;94300.41;;;21.86;100.00
20622;BME280;10470;42.670;23.354;2022-08-21T07:46:44;94303.28;;;21.94;100.00
20622;BME280;10470;42.670;23.354;2022-08-21T07:49:09;94298.56;;;22.02;100.00
20622;BME280;10470;42.670;23.354;2022-08-21T07:51:35;94298.38;;;21.87;100.00
20622;BME280;10470;42.670;23.354;2022-08-21T07:54:00;94300.38;;;22.13;100.00
20622;BME280;10470;42.670;23.354;2022-08-21T07:56:27;94316.25;;;22.52;100.00
20622;BME280;10470;42.670;23.354;2022-08-21T07:58:53;94316.28;;;22.73;100.00
20622;BME280;10470;42.670;23.354;2022-08-21T08:01:19;94312.34;;;22.34;100.00
20622;BME280;10470;42.670;23.354;2022-08-21T08:03:45;94309.19;;;22.51;100.00
20622;BME280;10470;42.670;23.354;2022-08-21T08:06:11;94306.75;;;22.48;100.00
20622;BME280;10470;42.670;23.354;2022-08-21T08:08:42;94311.44;;;22.53;100.00
20622;BME280;10470;42.670;23.354;2022-08-21T08:11:09;94310.59;;;22.79;100.00
20622;BME280;10470;42.670;23.354;2022-08-21T08:13:49;94314.56;;;22.36;100.00
20622;BME280;10470;42.670;23.354;2022-08-21T08:16:16;94300.63;;;21.88;100.00
20622;BME280;10470;42.670;23.354;2022-08-21T08:18:42;94303.81;;;22.06;100.00
20622;BME280;10470;42.670;23.354;2022-08-21T08:21:08;94305.53;;;22.09;100.00
20622;BME280;10470;42.670;23.354;2022-08-21T08:23:34;94309.88;;;22.31;100.00
20622;BME280;10470;42.670;23.354;2022-08-21T08:26:00;94310.00;;;22.25;100.00
20622;BME280;10470;42.670;23.354;2022-08-21T08:28:28;94313.09;;;22.08;100.00
20622;BME280;10470;42.670;23.354;2022-08-21T08:30:54;94320.41;;;22.45;100.00
20622;BME280;10470;42.670;23.354;2022-08-21T08:33:21;94312.34;;;22.34;100.00
20622;BME280;10470;42.670;23.354;2022-08-21T08:35:48;94323.31;;;22.40;100.00
20622;BME280;10470;42.670;23.354;2022-08-21T08:38:15;94321.19;;;22.33;100.00
20622;BME280;10470;42.670;23.354;2022-08-21T08:43:28;94323.13;;;22.72;100.00
20622;BME280;10470;42.670;23.354;2022-08-21T08:45:56;94323.28;;;22.87;100.00
20622;BME280;10470;42.670;23.354;2022-08-21T08:48:42;94314.22;;;23.29;100.00
20622;BME280;10470;42.670;23.354;2022-08-21T08:51:24;94328.63;;;23.41;100.00
20622;BME280;10470;42.670;23.354;2022-08-21T08:54:00;94321.22;;;23.43;100.00
20622;BME280;10470;42.670;23.354;2022-08-21T08:56:30;94306.22;;;23.46;100.00
20622;BME280;10470;42.670;23.354;2022-08-21T08:59:00;94295.56;;;23.58;100.00
20622;BME280;10470;42.670;23.354;2022-08-21T09:01:26;94303.03;;;23.42;100.00
20622;BME280;10470;42.670;23.354;2022-08-21T09:03:52;94307.72;;;23.26;100.00
20622;BME280;10470;42.670;23.354;2022-08-21T09:20:39;94270.00;;;23.96;100.00
20622;BME280;10470;42.670;23.354;2022-08-21T09:23:16;94280.22;;;24.01;100.00
20622;BME280;10470;42.670;23.354;2022-08-21T09:28:35;94274.50;;;24.51;100.00
20622;BME280;10470;42.670;23.354;2022-08-21T09:33:47;94282.72;;;24.20;100.00
20622;BME280;10470;42.670;23.354;2022-08-21T09:36:23;94274.34;;;24.12;100.00
20622;BME280;10470;42.670;23.354;2022-08-21T09:38:53;94281.06;;;24.25;100.00
20622;BME280;10470;42.670;23.354;2022-08-21T09:41:30;94285.78;;;24.37;100.00
20622;BME280;10470;42.670;23.354;2022-08-21T09:43:57;94277.13;;;24.12;100.00
20622;BME280;10470;42.670;23.354;2022-08-21T09:46:25;94279.41;;;23.57;100.00
20622;BME280;10470;42.670;23.354;2022-08-21T09:48:53;94270.81;;;23.75;100.00
20622;BME280;10470;42.670;23.354;2022-08-21T09:51:22;94271.75;;;24.14;100.00
20622;BME280;10470;42.670;23.354;2022-08-21T09:53:53;94273.44;;;24.17;100.00
20622;BME280;10470;42.670;23.354;2022-08-21T09:56:35;94271.03;;;24.22;100.00
20622;BME280;10470;42.670;23.354;2022-08-21T09:59:30;94272.44;;;23.71;100.00
20622;BME280;10470;42.670;23.354;2022-08-21T10:01:59;94274.63;;;24.37;100.00
20622;BME280;10470;42.670;23.354;2022-08-21T10:04:36;94263.63;;;24.24;100.00
20622;BME280;10470;42.670;23.354;2022-08-21T10:07:09;94264.63;;;24.42;100.00
20622;BME280;10470;42.670;23.354;2022-08-21T10:09:36;94265.41;;;24.50;100.00
20622;BME280;10470;42.670;23.354;2022-08-21T10:12:35;94264.16;;;24.67;100.00
20622;BME280;10470;42.670;23.354;2022-08-21T10:15:20;94263.88;;;24.41;100.00
20622;BME280;10470;42.670;23.354;2022-08-21T10:31:11;94248.59;;;25.02;100.00
20622;BME280;10470;42.670;23.354;2022-08-21T10:36:25;94245.63;;;25.15;100.00
20622;BME280;10470;42.670;23.354;2022-08-21T10:39:15;94250.06;;;25.49;100.00
20622;BME280;10470;42.670;23.354;2022-08-21T10:44:41;94247.13;;;25.24;100.00
20622;BME280;10470;42.670;23.354;2022-08-21T10:47:41;94231.88;;;25.10;100.00
20622;BME280;10470;42.670;23.354;2022-08-21T10:50:30;94235.09;;;26.00;100.00
20622;BME280;10470;42.670;23.354;2022-08-21T10:55:33;94236.56;;;26.49;100.00
20622;BME280;10470;42.670;23.354;2022-08-21T10:58:10;94220.50;;;26.17;100.00
20622;BME280;10470;42.670;23.354;2022-08-21T11:03:13;94222.38;;;26.55;100.00
20622;BME280;10470;42.670;23.354;2022-08-21T11:05:48;94220.41;;;26.00;100.00
20622;BME280;10470;42.670;23.354;2022-08-21T11:08:21;94215.56;;;26.73;100.00
20622;BME280;10470;42.670;23.354;2022-08-21T11:11:05;94215.19;;;26.69;100.00
20622;BME280;10470;42.670;23.354;2022-08-21T11:19:40;94198.91;;;27.51;100.00
20622;BME280;10470;42.670;23.354;2022-08-21T11:22:13;94193.53;;;27.28;100.00
20622;BME280;10470;42.670;23.354;2022-08-21T11:25:08;94187.19;;;27.27;100.00
20622;BME280;10470;42.670;23.354;2022-08-21T11:27:43;94203.91;;;27.35;100.00
20622;BME280;10470;42.670;23.354;2022-08-21T11:30:11;94168.28;;;27.53;100.00
20622;BME280;10470;42.670;23.354;2022-08-21T11:41:03;94199.31;;;27.64;100.00
20622;BME280;10470;42.670;23.354;2022-08-21T11:43:37;94194.97;;;27.88;100.00
20622;BME280;10470;42.670;23.354;2022-08-21T11:51:35;94196.22;;;27.18;100.00
20622;BME280;10470;42.670;23.354;2022-08-21T11:54:11;94179.66;;;26.87;100.00
20622;BME280;10470;42.670;23.354;2022-08-21T11:56:46;94187.97;;;26.77;100.00
20622;BME280;10470;42.670;23.354;2022-08-21T11:59:17;94193.03;;;26.96;100.00
20622;BME280;10470;42.670;23.354;2022-08-21T12:01:46;94188.47;;;26.84;100.00
20622;BME280;10470;42.670;23.354;2022-08-21T12:04:30;94191.25;;;26.58;100.00
20622;BME280;10470;42.670;23.354;2022-08-21T12:07:10;94181.78;;;26.13;100.00
20622;BME280;10470;42.670;23.354;2022-08-21T12:09:37;94168.13;;;26.25;100.00
20622;BME280;10470;42.670;23.354;2022-08-21T12:12:30;94164.25;;;26.21;100.00
20622;BME280;10470;42.670;23.354;2022-08-21T12:23:17;94180.28;;;26.20;100.00
20622;BME280;10470;42.670;23.354;2022-08-21T12:25:59;94187.59;;;26.08;100.00
20622;BME280;10470;42.670;23.354;2022-08-21T12:28:26;94182.75;;;26.08;100.00
20622;BME280;10470;42.670;23.354;2022-08-21T12:30:53;94181.16;;;25.90;100.00
20622;BME280;10470;42.670;23.354;2022-08-21T12:33:23;94179.88;;;25.76;100.00
20622;BME280;10470;42.670;23.354;2022-08-21T12:35:52;94185.09;;;25.71;100.00
20622;BME280;10470;42.670;23.354;2022-08-21T12:38:23;94173.94;;;25.71;100.00
20622;BME280;10470;42.670;23.354;2022-08-21T12:41:01;94178.16;;;25.96;100.00
20622;BME280;10470;42.670;23.354;2022-08-21T12:43:41;94177.66;;;25.74;100.00
20622;BME280;10470;42.670;23.354;2022-08-21T12:46:26;94173.34;;;25.88;100.00
20622;BME280;10470;42.670;23.354;2022-08-21T12:49:14;94172.19;;;25.84;100.00
20622;BME280;10470;42.670;23.354;2022-08-21T12:52:16;94173.94;;;25.71;100.00
20622;BME280;10470;42.670;23.354;2022-08-21T12:54:45;94167.09;;;25.57;100.00
20622;BME280;10470;42.670;23.354;2022-08-21T12:57:40;94162.13;;;25.48;100.00
20622;BME280;10470;42.670;23.354;2022-08-21T13:00:09;94166.94;;;25.47;100.00
20622;BME280;10470;42.670;23.354;2022-08-21T13:02:43;94155.63;;;25.38;100.00
20622;BME280;10470;42.670;23.354;2022-08-21T13:05:21;94162.88;;;25.41;100.00
20622;BME280;10470;42.670;23.354;2022-08-21T13:07:49;94157.09;;;25.39;100.00
20622;BME280;10470;42.670;23.354;2022-08-21T13:10:29;94152.66;;;25.36;100.00
20622;BME280;10470;42.670;23.354;2022-08-21T13:12:58;94154.50;;;25.41;100.00
20622;BME280;10470;42.670;23.354;2022-08-21T13:15:36;94162.69;;;25.31;100.00
20622;BME280;10470;42.670;23.354;2022-08-21T13:18:04;94161.97;;;25.31;100.00
20622;BME280;10470;42.670;23.354;2022-08-21T13:20:39;94155.09;;;25.24;100.00
20622;BME280;10470;42.670;23.354;2022-08-21T13:23:28;94148.56;;;25.29;100.00
20622;BME280;10470;42.670;23.354;2022-08-21T13:25:55;94149.44;;;25.47;100.00
20622;BME280;10470;42.670;23.354;2022-08-21T13:28:21;94144.78;;;25.57;100.00
20622;BME280;10470;42.670;23.354;2022-08-21T13:30:50;94139.47;;;25.92;100.00
20622;BME280;10470;42.670;23.354;2022-08-21T13:33:19;94125.72;;;26.19;100.00
20622;BME280;10470;42.670;23.354;2022-08-21T13:35:57;94116.28;;;26.40;100.00
20622;BME280;10470;42.670;23.354;2022-08-21T13:38:29;94120.47;;;25.83;100.00
20622;BME280;10470;42.670;23.354;2022-08-21T13:40:58;94126.63;;;26.22;100.00
20622;BME280;10470;42.670;23.354;2022-08-21T13:43:31;94130.09;;;26.05;100.00
20622;BME280;10470;42.670;23.354;2022-08-21T13:45:57;94141.69;;;25.93;100.00
20622;BME280;10470;42.670;23.354;2022-08-21T13:48:25;94143.66;;;26.08;100.00
20622;BME280;10470;42.670;23.354;2022-08-21T13:50:53;94136.19;;;26.11;100.00
20622;BME280;10470;42.670;23.354;2022-08-21T13:55:53;94135.81;;;26.40;100.00
20622;BME280;10470;42.670;23.354;2022-08-21T13:58:46;94133.66;;;25.98;100.00
20622;BME280;10470;42.670;23.354;2022-08-21T14:01:25;94136.28;;;26.28;100.00
20622;BME280;10470;42.670;23.354;2022-08-21T14:03:54;94129.59;;;26.24;100.00
20622;BME280;10470;42.670;23.354;2022-08-21T14:06:26;94124.38;;;25.95;100.00
20622;BME280;10470;42.670;23.354;2022-08-21T14:08:59;94125.31;;;25.90;100.00